LEASLEBG

Guest
Details From LEAS - Asturias
To LEBG - Burgos
Flight Number -
Tags generated
Created
Modified
Stats Distance 129 nm / 238 km
Max Altitude 4,800 ft / 1,463 m
Waypoints 3
Social Downloads 0
Likes 0
Share VATSIM

Download

Looking for another format? Having issues loading an existing format? Contact us
Advertisement - Login to hide

Notes

Basic altitude profile: - Ascent Rate: 2500ft/min - Ascent Speed: 250kts - Cruise Altitude: 12500ft - Cruise Speed: 420kts - Descent Rate: 1500ft/min - Descent Speed: 250kts Options: - Use NATs: yes - Use PACOTS: yes - Use low airways: yes - Use high airways: yes

Route

LEAS RATAS LEBG

ID Type Via Altitude Latitude Longitude Leg Dist Tot Dist Heading (true) Name
O LEAS APT - 0 ft / 0 m 43.56350˚ -6.03467˚ - 0 nm - Asturias
RATAS FIX - 4,800 ft / 1,463 m 42.57445˚ -4.03077˚ 106 nm 106 nm 123° / 125° -
O LEBG APT - 0 ft / 0 m 42.35689˚ -3.61422˚ 22 nm 128 nm 125° / 125° Burgos

Altitude Profile

Advertisement - Login to hide

LEAS

Details ICAO LEAS (OVD)
Name Asturias
Region Spain
Timezone Europe/Madrid (UTC+1.0)
Stats Elevation 416 ft / 127 m (AMSL)
Location 43.563496° -6.034670°
Runways 1
Magnetic Variation 1.630° W

METAR

LEAS 110400Z AUTO 23013KT 200V260 4500 BR FEW041 07/05 Q0987

Decode

TAF

TAF LEAS 110200Z 1103/1203 26012G22KT 9000 SCT020 BKN035 TX09/1113Z TN05/1203Z TEMPO 1103/1109 26020G32KT 4000 RA SHRA BKN020TCU TEMPO 1109/1203 4000 SHRA SCT030TCU PROB40 TEMPO 1103/1203 2500 TSRAGR BKN014 BKN025CB TEMPO 1109/1115 32012G22KT

Decode

Departure Runways

ID Width Length Bearing (true) Bearing (mag) Surface Threshold Offset Overrun Length
11 148 ft / 45 m 7,216 ft / 2,200 m 108.09° 109.72° Asphalt 0 ft / 0 m 164 ft / 50 m
29 148 ft / 45 m 7,216 ft / 2,200 m 288.10° 289.73° Asphalt 0 ft / 0 m 164 ft / 50 m

LEBG

Details ICAO LEBG (RGS)
Name Burgos
Region Spain
Timezone Europe/Madrid (UTC+1.0)
Stats Elevation 2,961 ft / 903 m (AMSL)
Location 42.356895° -3.614221°
Runways 1
Magnetic Variation 0.788° W

METAR

LEBG 110400Z AUTO 20017KT 7000 -RA ////// 04/03 Q0986

Decode

TAF

Not found

Destination Runways

ID Width Length Bearing (true) Bearing (mag) Surface Threshold Offset Overrun Length
04 148 ft / 45 m 6,423 ft / 1,958 m 43.31° 44.10° Asphalt 0 ft / 0 m 0 ft / 0 m
22 148 ft / 45 m 6,423 ft / 1,958 m 223.32° 224.11° Asphalt 0 ft / 0 m 0 ft / 0 m